createdAt,value
2023-05-19T00:02:34.007Z,102947.22
2023-05-19T00:05:34.989Z,102949.09
2023-05-19T00:08:36.799Z,102951.84
2023-05-19T00:11:37.788Z,102955.19
2023-05-19T00:14:38.781Z,102948.50
2023-05-19T00:17:40.784Z,102955.97
2023-05-19T00:20:41.804Z,102956.91
2023-05-19T00:23:42.777Z,102954.81
2023-05-19T00:26:43.848Z,102965.25
2023-05-19T00:29:44.771Z,102959.81
2023-05-19T00:32:45.830Z,102956.44
2023-05-19T00:35:47.771Z,102951.16
2023-05-19T00:38:48.860Z,102968.44
2023-05-19T00:41:49.753Z,102964.66
2023-05-19T00:44:53.789Z,102966.97
2023-05-19T00:47:55.880Z,102970.66
2023-05-19T00:50:56.788Z,102967.38
2023-05-19T00:53:58.810Z,102965.16
2023-05-19T00:56:59.773Z,102969.50
2023-05-19T01:00:01.790Z,102980.34
2023-05-19T01:03:02.943Z,102971.63
2023-05-19T01:06:03.831Z,102973.50
2023-05-19T01:09:04.765Z,102965.97
2023-05-19T01:12:05.793Z,102975.03
2023-05-19T01:15:06.819Z,102976.81
2023-05-19T01:18:07.871Z,102979.66
2023-05-19T01:21:17.783Z,102979.44
2023-05-19T01:24:24.785Z,102982.38
2023-05-19T01:27:28.800Z,102973.88
2023-05-19T01:30:38.788Z,102984.13
2023-05-19T01:33:40.773Z,102985.59
2023-05-19T01:36:41.754Z,102982.31
2023-05-19T01:39:42.773Z,102980.47
2023-05-19T01:42:46.786Z,102989.16
2023-05-19T01:45:47.834Z,102991.03
2023-05-19T01:48:48.748Z,102991.97
2023-05-19T01:51:49.807Z,102984.59
2023-05-19T01:54:50.808Z,102983.84
2023-05-19T01:57:54.789Z,102982.47
2023-05-19T02:00:55.886Z,102980.31
2023-05-19T02:04:01.805Z,102983.88
2023-05-19T02:07:22.788Z,102986.69
2023-05-19T02:10:37.789Z,102984.00
2023-05-19T02:13:42.749Z,102983.03
2023-05-19T02:16:43.782Z,102986.56
2023-05-19T02:19:48.774Z,102978.50
2023-05-19T02:22:49.796Z,102981.63
2023-05-19T02:25:50.768Z,102982.63
2023-05-19T02:28:52.800Z,102988.94
2023-05-19T02:31:53.859Z,102984.13
2023-05-19T02:34:54.755Z,102978.72
2023-05-19T02:37:55.764Z,102976.84
2023-05-19T02:40:56.749Z,102978.56
2023-05-19T02:43:57.772Z,102978.44
2023-05-19T02:46:58.790Z,102973.16
2023-05-19T02:49:59.813Z,102972.38
2023-05-19T02:52:53.736Z,102980.00
2023-05-19T02:55:54.810Z,102981.91
2023-05-19T02:58:55.741Z,102977.81
2023-05-19T03:01:56.848Z,102980.47
2023-05-19T03:04:57.754Z,102979.41
2023-05-19T03:07:58.775Z,102985.28
2023-05-19T03:10:59.793Z,102982.38
2023-05-19T03:14:00.785Z,102981.50
2023-05-19T03:17:02.831Z,102989.09
2023-05-19T03:19:57.766Z,102985.16
2023-05-19T03:22:59.765Z,102999.19
2023-05-19T03:26:02.735Z,102995.34
2023-05-19T03:29:03.768Z,102996.28
2023-05-19T03:32:04.772Z,102997.06
2023-05-19T03:35:05.784Z,102998.88
2023-05-19T03:38:06.769Z,103006.97
2023-05-19T03:41:13.773Z,103005.53
2023-05-19T03:44:14.796Z,103006.97
2023-05-19T03:47:15.817Z,103013.25
2023-05-19T03:50:29.870Z,103008.72
2023-05-19T03:53:44.783Z,103017.69
2023-05-19T03:56:45.783Z,103019.22
2023-05-19T03:59:47.785Z,103021.06
2023-05-19T04:02:48.897Z,103020.16
2023-05-19T04:05:49.744Z,103029.25
2023-05-19T04:08:50.762Z,103031.47
2023-05-19T04:11:51.779Z,103025.72
2023-05-19T04:14:52.786Z,103025.59
2023-05-19T04:17:53.832Z,103036.75
2023-05-19T04:20:54.768Z,103033.22
2023-05-19T04:23:55.743Z,103039.63
2023-05-19T04:26:56.768Z,103043.59
2023-05-19T04:29:57.757Z,103033.22
2023-05-19T04:32:58.776Z,103034.66
2023-05-19T04:35:59.756Z,103029.72
2023-05-19T04:39:01.735Z,103032.09
2023-05-19T04:42:02.767Z,103028.66
2023-05-19T04:45:04.753Z,103025.91
2023-05-19T04:48:02.108Z,103035.47
2023-05-19T04:50:55.761Z,103032.03
2023-05-19T04:53:56.753Z,103034.22
2023-05-19T04:56:57.746Z,103028.22
2023-05-19T05:00:06.758Z,103029.81
2023-05-19T05:03:20.836Z,103033.97
2023-05-19T05:06:21.765Z,103039.19
2023-05-19T05:09:22.803Z,103046.09
2023-05-19T05:12:25.762Z,103042.88
2023-05-19T05:15:26.749Z,103034.50
2023-05-19T05:18:29.759Z,103029.31
2023-05-19T05:21:30.730Z,103033.78
2023-05-19T05:24:31.716Z,103047.53
2023-05-19T05:27:32.805Z,103034.13
2023-05-19T05:30:34.739Z,103036.97
2023-05-19T05:33:35.781Z,103048.13
2023-05-19T05:36:37.728Z,103031.72
2023-05-19T05:39:38.747Z,103040.66
2023-05-19T05:42:39.777Z,103033.00
2023-05-19T05:45:40.795Z,103037.28
2023-05-19T05:48:34.868Z,103038.19
2023-05-19T05:51:28.744Z,103042.41
2023-05-19T05:54:31.783Z,103046.38
2023-05-19T05:57:32.748Z,103041.16
2023-05-19T06:00:35.118Z,103045.00
2023-05-19T06:03:35.755Z,103039.06
2023-05-19T06:06:40.752Z,103045.72
2023-05-19T06:09:46.725Z,103055.88
2023-05-19T06:12:47.726Z,103049.28
2023-05-19T06:15:48.906Z,103049.84
2023-05-19T06:18:57.811Z,103045.22
2023-05-19T06:21:58.756Z,103036.66
2023-05-19T06:25:00.751Z,103044.00
2023-05-19T06:28:01.715Z,103046.13
2023-05-19T06:31:02.833Z,103045.63
2023-05-19T06:34:18.727Z,103035.88
2023-05-19T06:37:23.742Z,103037.47
2023-05-19T06:40:24.745Z,103039.09
2023-05-19T06:43:25.849Z,103028.47
2023-05-19T06:46:30.791Z,103035.25
2023-05-19T06:49:31.756Z,103037.63
2023-05-19T06:52:32.772Z,103034.00
2023-05-19T06:55:35.630Z,103036.97
2023-05-19T06:58:41.782Z,103037.47
2023-05-19T07:01:42.753Z,103042.03
2023-05-19T07:04:44.769Z,103034.22
2023-05-19T07:07:45.773Z,103036.22
2023-05-19T07:10:51.752Z,103042.75
2023-05-19T07:13:52.727Z,103041.75
2023-05-19T07:16:57.725Z,103039.91
2023-05-19T07:19:59.741Z,103038.75
2023-05-19T07:23:00.736Z,103048.47
2023-05-19T07:26:02.714Z,103043.16
2023-05-19T07:29:04.740Z,103044.59
2023-05-19T07:32:05.730Z,103045.63
2023-05-19T07:35:06.732Z,103044.81
2023-05-19T07:38:07.756Z,103044.28
2023-05-19T07:41:08.755Z,103034.88
2023-05-19T07:44:13.774Z,103038.94
2023-05-19T07:47:14.698Z,103029.09
2023-05-19T07:50:15.724Z,103026.47
2023-05-19T07:53:16.768Z,103030.22
2023-05-19T07:56:17.742Z,103029.03
2023-05-19T07:59:18.777Z,103024.34
2023-05-19T08:02:19.867Z,103025.31
2023-05-19T08:05:20.722Z,103025.41
2023-05-19T08:08:23.805Z,103023.56
2023-05-19T08:11:24.740Z,103031.84
2023-05-19T08:14:25.795Z,103021.13
2023-05-19T08:17:26.756Z,103026.44
2023-05-19T08:20:28.746Z,103025.16
2023-05-19T08:23:29.712Z,103032.84
2023-05-19T08:26:30.702Z,103016.88
2023-05-19T08:29:31.719Z,103021.63
2023-05-19T08:32:32.759Z,103028.38
2023-05-19T08:35:33.734Z,103025.91
2023-05-19T08:38:34.720Z,103023.44
2023-05-19T08:41:35.738Z,103017.03
2023-05-19T08:44:37.703Z,103021.94
2023-05-19T08:47:38.784Z,103020.22
2023-05-19T08:50:43.720Z,103027.88
2023-05-19T08:53:50.735Z,103028.81
2023-05-19T08:56:51.715Z,103028.38
2023-05-19T08:59:52.719Z,103025.66
2023-05-19T09:03:00.232Z,103018.38
2023-05-19T09:06:06.758Z,103021.44
2023-05-19T09:09:08.075Z,103025.38
2023-05-19T09:12:08.697Z,103026.72
2023-05-19T09:15:09.738Z,103029.97
2023-05-19T09:18:23.706Z,103022.78
2023-05-19T09:21:24.777Z,103029.28
2023-05-19T09:24:25.717Z,103030.28
2023-05-19T09:27:28.717Z,103028.63
2023-05-19T09:30:29.749Z,103019.63
2023-05-19T09:33:33.706Z,103030.63
2023-05-19T09:36:34.695Z,103029.06
2023-05-19T09:39:37.696Z,103022.34
2023-05-19T09:42:38.784Z,103015.78
2023-05-19T09:45:40.820Z,103020.56
2023-05-19T09:48:41.750Z,103007.56
2023-05-19T09:51:36.021Z,103009.47
2023-05-19T09:54:37.718Z,103011.03
2023-05-19T09:57:40.767Z,103011.50
2023-05-19T10:00:42.699Z,103014.50
2023-05-19T10:03:44.701Z,103004.44
2023-05-19T10:06:45.721Z,103011.81
2023-05-19T10:09:47.720Z,103007.66
2023-05-19T10:12:48.708Z,103003.91
2023-05-19T10:15:58.254Z,103009.56
2023-05-19T10:19:00.786Z,103011.91
2023-05-19T10:22:01.698Z,103007.47
2023-05-19T10:25:02.708Z,103005.28
2023-05-19T10:28:18.741Z,103012.13
2023-05-19T10:31:21.732Z,103014.97
2023-05-19T10:34:34.685Z,103009.41
2023-05-19T10:37:37.723Z,103004.91
2023-05-19T10:40:42.723Z,103002.38
2023-05-19T10:43:43.721Z,102996.16
2023-05-19T10:46:44.787Z,102998.09
2023-05-19T10:49:48.711Z,103002.38
2023-05-19T10:52:45.789Z,102998.97
2023-05-19T10:55:53.689Z,102988.97
2023-05-19T10:58:56.700Z,102997.84
2023-05-19T11:01:57.771Z,102998.53
2023-05-19T11:05:04.743Z,102986.38
2023-05-19T11:08:11.690Z,102996.16
2023-05-19T11:11:25.704Z,102986.28
2023-05-19T11:14:26.678Z,102990.84
2023-05-19T11:17:29.747Z,103000.56
2023-05-19T11:20:42.733Z,102991.53
2023-05-19T11:23:50.764Z,102993.13
2023-05-19T11:26:54.708Z,102996.66
2023-05-19T11:29:55.726Z,102994.56
2023-05-19T11:32:57.946Z,102986.03
2023-05-19T11:36:01.686Z,102993.44
2023-05-19T11:39:03.741Z,102995.84
2023-05-19T11:42:04.668Z,103000.00
2023-05-19T11:45:08.705Z,102998.16
2023-05-19T11:48:12.805Z,102992.19
2023-05-19T11:51:13.679Z,102990.91
2023-05-19T11:54:08.784Z,102996.00
2023-05-19T11:57:02.696Z,102995.84
2023-05-19T12:00:03.728Z,102984.94
2023-05-19T12:03:04.796Z,102999.53
2023-05-19T12:06:05.742Z,102990.41
2023-05-19T12:09:07.737Z,103000.31
2023-05-19T12:12:08.685Z,102995.69
2023-05-19T12:15:09.721Z,102997.44
2023-05-19T12:18:11.715Z,102989.88
2023-05-19T12:21:12.661Z,103001.44
2023-05-19T12:24:13.727Z,102993.44
2023-05-19T12:27:23.670Z,102993.16
2023-05-19T12:30:24.718Z,102988.13
2023-05-19T12:33:25.715Z,102991.03
2023-05-19T12:36:26.700Z,102988.84
2023-05-19T12:39:27.669Z,102987.22
2023-05-19T12:42:28.672Z,102990.13
2023-05-19T12:45:34.710Z,102984.50
2023-05-19T12:48:35.732Z,102991.06
2023-05-19T12:51:36.680Z,102986.38
2023-05-19T12:54:38.732Z,102985.16
2023-05-19T12:57:39.666Z,102989.72
2023-05-19T13:00:40.762Z,103002.22
2023-05-19T13:03:42.787Z,102996.88
2023-05-19T13:06:43.679Z,102995.03
2023-05-19T13:09:44.679Z,102991.78
2023-05-19T13:12:54.673Z,102988.66
2023-05-19T13:15:56.700Z,102979.84
2023-05-19T13:18:57.690Z,102980.19
2023-05-19T13:21:58.689Z,102979.28
2023-05-19T13:24:59.684Z,102981.44
2023-05-19T13:28:00.688Z,102976.50
2023-05-19T13:31:01.687Z,102979.22
2023-05-19T13:34:02.689Z,102979.53
2023-05-19T13:37:03.793Z,102975.88
2023-05-19T13:40:04.707Z,102973.38
2023-05-19T13:43:05.706Z,102977.44
2023-05-19T13:46:06.720Z,102978.06
2023-05-19T13:49:07.678Z,102964.84
2023-05-19T13:52:11.680Z,102966.44
2023-05-19T13:55:12.688Z,102967.47
2023-05-19T13:58:13.882Z,102961.34
2023-05-19T14:01:07.730Z,102966.13
2023-05-19T14:04:08.919Z,102957.97
2023-05-19T14:07:09.671Z,102962.31
2023-05-19T14:10:11.643Z,102963.09
2023-05-19T14:13:31.556Z,102962.31
2023-05-19T14:16:35.478Z,102962.94
2023-05-19T14:19:36.678Z,102963.97
2023-05-19T14:22:37.655Z,102974.88
2023-05-19T14:25:38.695Z,102962.91
2023-05-19T14:28:39.657Z,102966.41
2023-05-19T14:31:40.704Z,102961.28
2023-05-19T14:34:41.681Z,102960.06
2023-05-19T14:37:42.639Z,102940.72
2023-05-19T14:40:43.668Z,102964.00
2023-05-19T14:43:45.915Z,102958.59
2023-05-19T14:46:47.746Z,102966.06
2023-05-19T14:49:48.685Z,102963.72
2023-05-19T14:52:49.688Z,102959.31
2023-05-19T14:55:50.702Z,102956.19
2023-05-19T14:58:51.688Z,102953.63
2023-05-19T15:01:52.711Z,102948.47
2023-05-19T15:04:53.684Z,102955.06
2023-05-19T15:07:54.672Z,102946.59
2023-05-19T15:10:55.695Z,102948.63
2023-05-19T15:13:56.731Z,102940.50
2023-05-19T15:16:57.752Z,102945.66
2023-05-19T15:19:58.664Z,102941.97
2023-05-19T15:22:59.658Z,102942.22
2023-05-19T15:26:00.680Z,102938.25
2023-05-19T15:29:01.640Z,102932.84
2023-05-19T15:32:05.707Z,102934.72
2023-05-19T15:35:06.870Z,102929.41
2023-05-19T15:38:12.653Z,102929.19
2023-05-19T15:41:13.672Z,102920.69
2023-05-19T15:44:14.653Z,102921.41
2023-05-19T15:47:15.636Z,102930.19
2023-05-19T15:50:16.964Z,102925.31
2023-05-19T15:53:17.686Z,102926.09
2023-05-19T15:56:18.706Z,102920.66
2023-05-19T15:59:19.649Z,102911.69
2023-05-19T16:02:20.726Z,102919.31
2023-05-19T16:05:21.655Z,102917.75
2023-05-19T16:08:22.675Z,102916.38
2023-05-19T16:11:24.676Z,102915.56
2023-05-19T16:14:26.859Z,102911.75
2023-05-19T16:17:28.792Z,102910.56
2023-05-19T16:20:33.809Z,102909.69
2023-05-19T16:23:34.672Z,102910.34
2023-05-19T16:26:28.645Z,102911.59
2023-05-19T16:29:29.660Z,102907.78
2023-05-19T16:32:30.674Z,102910.19
2023-05-19T16:35:31.803Z,102903.94
2023-05-19T16:38:33.663Z,102903.66
2023-05-19T16:41:34.687Z,102908.25
2023-05-19T16:44:35.635Z,102907.31
2023-05-19T16:47:36.845Z,102906.22
2023-05-19T16:50:37.874Z,102908.13
2023-05-19T16:53:38.706Z,102904.75
2023-05-19T16:56:39.628Z,102908.28
2023-05-19T16:59:40.715Z,102906.84
2023-05-19T17:02:41.767Z,102907.72
2023-05-19T17:05:42.729Z,102902.84
2023-05-19T17:08:43.649Z,102900.47
2023-05-19T17:11:44.669Z,102901.09
2023-05-19T17:14:45.669Z,102896.81
2023-05-19T17:17:46.710Z,102861.59
2023-05-19T17:20:48.632Z,102895.03
2023-05-19T17:23:49.681Z,102894.59
2023-05-19T17:26:50.661Z,102902.69
2023-05-19T17:29:51.690Z,102902.44
2023-05-19T17:32:52.786Z,102894.50
2023-05-19T17:35:53.954Z,102903.69
2023-05-19T17:38:54.648Z,102899.53
2023-05-19T17:41:55.695Z,102900.03
2023-05-19T17:44:56.657Z,102903.38
2023-05-19T17:47:57.740Z,102895.94
2023-05-19T17:51:02.397Z,102892.53
2023-05-19T17:54:03.706Z,102891.97
2023-05-19T17:57:04.641Z,102890.22
2023-05-19T18:00:05.693Z,102894.78
2023-05-19T18:03:07.742Z,102909.00
2023-05-19T18:06:08.706Z,102911.03
2023-05-19T18:09:14.666Z,102904.31
2023-05-19T18:12:15.653Z,102904.66
2023-05-19T18:15:16.633Z,102905.75
2023-05-19T18:18:18.676Z,102904.56
2023-05-19T18:21:21.648Z,102908.47
2023-05-19T18:24:22.683Z,102912.00
2023-05-19T18:27:23.637Z,102910.06
2023-05-19T18:30:24.675Z,102917.56
2023-05-19T18:33:27.313Z,102918.81
2023-05-19T18:36:29.753Z,102921.63
2023-05-19T18:39:30.628Z,102918.75
2023-05-19T18:42:31.659Z,102920.91
2023-05-19T18:45:32.687Z,102917.88
2023-05-19T18:48:33.668Z,102914.59
2023-05-19T18:51:34.635Z,102917.25
2023-05-19T18:54:35.663Z,102920.72
2023-05-19T18:57:36.620Z,102927.66
2023-05-19T19:00:37.690Z,102928.63
2023-05-19T19:03:38.609Z,102929.34
2023-05-19T19:06:40.189Z,102934.16
2023-05-19T19:09:41.624Z,102931.34
2023-05-19T19:12:42.695Z,102936.69
2023-05-19T19:15:43.616Z,102932.38
2023-05-19T19:18:44.888Z,102932.94
2023-05-19T19:21:45.657Z,102932.22
2023-05-19T19:24:46.668Z,102930.78
2023-05-19T19:27:47.624Z,102928.09
2023-05-19T19:30:48.689Z,102927.44
2023-05-19T19:33:49.632Z,102918.50
2023-05-19T19:36:51.915Z,102935.31
2023-05-19T19:39:53.700Z,102928.38
2023-05-19T19:42:54.688Z,102927.53
2023-05-19T19:45:55.784Z,102922.47
2023-05-19T19:48:56.634Z,102928.09
2023-05-19T19:51:57.687Z,102936.13
2023-05-19T19:54:58.666Z,102934.16
2023-05-19T19:57:59.679Z,102926.47
2023-05-19T20:01:00.709Z,102929.81
2023-05-19T20:04:01.741Z,102936.84
2023-05-19T20:07:02.741Z,102929.34
2023-05-19T20:10:03.648Z,102924.53
2023-05-19T20:13:05.653Z,102928.09
2023-05-19T20:16:06.743Z,102935.78
2023-05-19T20:19:09.185Z,102932.72
2023-05-19T20:22:10.595Z,102934.78
2023-05-19T20:25:11.701Z,102923.28
2023-05-19T20:28:12.711Z,102927.75
2023-05-19T20:31:13.654Z,102925.84
2023-05-19T20:34:14.682Z,102926.47
2023-05-19T20:37:41.963Z,102928.25
2023-05-19T20:40:42.628Z,102927.19
2023-05-19T20:43:43.666Z,102931.09
2023-05-19T20:46:44.641Z,102929.50
2023-05-19T20:49:45.716Z,102932.16
2023-05-19T20:52:46.673Z,102933.63
2023-05-19T20:55:47.687Z,102941.88
2023-05-19T20:58:41.777Z,102946.41
2023-05-19T21:01:36.683Z,102947.19
2023-05-19T21:04:39.739Z,102947.53
2023-05-19T21:07:40.652Z,102946.69
2023-05-19T21:10:41.662Z,102954.69
2023-05-19T21:13:45.655Z,102951.03
2023-05-19T21:16:46.640Z,102945.44
2023-05-19T21:19:48.518Z,102945.66
2023-05-19T21:22:49.666Z,102951.00
2023-05-19T21:25:50.698Z,102957.06
2023-05-19T21:28:51.624Z,102960.50
2023-05-19T21:31:52.651Z,102961.41
2023-05-19T21:34:53.756Z,102962.59
2023-05-19T21:37:54.970Z,102971.41
2023-05-19T21:40:55.588Z,102954.72
2023-05-19T21:43:56.664Z,102976.56
2023-05-19T21:46:57.701Z,102975.25
2023-05-19T21:49:58.666Z,102990.91
2023-05-19T21:52:59.608Z,102979.09
2023-05-19T21:56:00.665Z,102981.81
2023-05-19T21:59:01.588Z,102979.34
2023-05-19T22:02:02.809Z,102989.59
2023-05-19T22:05:03.598Z,102992.50
2023-05-19T22:08:04.678Z,102992.69
2023-05-19T22:11:05.595Z,102997.84
2023-05-19T22:14:06.656Z,102998.88
2023-05-19T22:17:07.600Z,103004.47
2023-05-19T22:20:08.658Z,103006.06
2023-05-19T22:23:10.599Z,102998.38
2023-05-19T22:26:11.631Z,102998.88
2023-05-19T22:29:12.611Z,102993.94
2023-05-19T22:32:13.678Z,102999.53
2023-05-19T22:35:14.621Z,102996.16
2023-05-19T22:38:15.712Z,102996.00
2023-05-19T22:41:16.614Z,103001.44
2023-05-19T22:44:19.711Z,103003.41
2023-05-19T22:47:20.575Z,103000.72
2023-05-19T22:50:21.652Z,103003.91
2023-05-19T22:53:22.624Z,102998.25
2023-05-19T22:56:23.622Z,103000.63
2023-05-19T22:59:24.589Z,103003.81
2023-05-19T23:02:26.706Z,103004.00
2023-05-19T23:05:27.607Z,103007.00
2023-05-19T23:08:28.635Z,102999.84
2023-05-19T23:11:29.603Z,103001.28
2023-05-19T23:14:32.632Z,102997.28
2023-05-19T23:17:33.660Z,102997.13
2023-05-19T23:20:34.652Z,103001.25
2023-05-19T23:23:35.566Z,103000.56
2023-05-19T23:26:36.644Z,102995.84
2023-05-19T23:29:37.581Z,102996.34
2023-05-19T23:32:38.714Z,103000.88
2023-05-19T23:35:39.590Z,102997.75
2023-05-19T23:38:40.807Z,102989.53
2023-05-19T23:41:41.632Z,103003.75
2023-05-19T23:44:42.666Z,102996.31
2023-05-19T23:48:01.645Z,102993.84
2023-05-19T23:51:04.614Z,102996.16
2023-05-19T23:54:05.584Z,102987.69
2023-05-19T23:57:06.630Z,102984.19
